TimeCDT,TemperatureF,Dew PointF,Humidity,Sea Level PressureIn,VisibilityMPH,Wind Direction,Wind SpeedMPH,Gust SpeedMPH,PrecipitationIn,Events,Conditions,WindDirDegrees,DateUTC
12:53 AM,35.1,28.0,76,30.01,10.0,WNW,5.8,-,N/A,,Clear,290,2011-10-21 05:53:00
1:53 AM,37.0,30.0,76,30.01,10.0,WNW,3.5,-,N/A,,Clear,300,2011-10-21 06:53:00
2:53 AM,37.0,28.9,73,30.03,10.0,Calm,Calm,-,N/A,,Clear,0,2011-10-21 07:53:00
3:53 AM,35.1,28.9,78,30.03,10.0,SW,4.6,-,N/A,,Partly Cloudy,220,2011-10-21 08:53:00
4:53 AM,35.6,28.4,75,30.02,10.0,WSW,3.5,-,N/A,,Clear,240,2011-10-21 09:53:00
5:53 AM,34.0,28.9,82,30.05,10.0,Calm,Calm,-,N/A,,Partly Cloudy,0,2011-10-21 10:53:00
6:53 AM,34.0,28.9,82,30.06,10.0,Calm,Calm,-,N/A,,Scattered Clouds,0,2011-10-21 11:53:00
7:53 AM,34.0,28.9,82,30.06,10.0,SSW,4.6,-,N/A,,Partly Cloudy,210,2011-10-21 12:53:00
8:53 AM,35.1,30.0,82,30.07,10.0,SSW,3.5,-,N/A,,Partly Cloudy,200,2011-10-21 13:53:00
9:53 AM,41.0,32.0,70,30.05,10.0,Calm,Calm,-,N/A,,Partly Cloudy,0,2011-10-21 14:53:00
10:53 AM,46.0,30.9,56,30.06,10.0,SSW,5.8,-,N/A,,Partly Cloudy,210,2011-10-21 15:53:00
11:53 AM,51.1,30.9,46,30.06,10.0,SSW,5.8,-,N/A,,Partly Cloudy,210,2011-10-21 16:53:00
12:53 PM,54.0,28.9,38,30.03,10.0,SW,9.2,-,N/A,,Partly Cloudy,230,2011-10-21 17:53:00
1:53 PM,55.9,28.9,36,30.01,10.0,Variable,5.8,-,N/A,,Partly Cloudy,0,2011-10-21 18:53:00
2:53 PM,57.9,28.9,33,29.99,10.0,SW,8.1,-,N/A,,Partly Cloudy,220,2011-10-21 19:53:00
3:53 PM,60.1,30.0,32,29.99,10.0,SSW,9.2,-,N/A,,Partly Cloudy,210,2011-10-21 20:53:00
4:53 PM,60.1,32.0,35,29.99,10.0,WSW,8.1,-,N/A,,Partly Cloudy,240,2011-10-21 21:53:00
5:53 PM,59.0,32.0,36,29.98,10.0,South,3.5,-,N/A,,Scattered Clouds,190,2011-10-21 22:53:00
6:53 PM,54.0,34.0,47,29.98,10.0,SE,3.5,-,N/A,,Mostly Cloudy,140,2011-10-21 23:53:00
7:53 PM,54.0,34.0,47,29.98,10.0,SSE,3.5,-,N/A,,Mostly Cloudy,160,2011-10-22 00:53:00
8:53 PM,50.0,37.0,61,29.99,10.0,NW,4.6,-,N/A,,Overcast,310,2011-10-22 01:53:00
9:53 PM,48.0,37.0,66,30.00,10.0,NW,4.6,-,N/A,,Partly Cloudy,310,2011-10-22 02:53:00
10:53 PM,51.8,37.4,58,29.99,10.0,NW,6.9,-,N/A,,Clear,310,2011-10-22 03:53:00
11:53 PM,48.9,37.0,64,30.01,10.0,NW,5.8,-,N/A,,Partly Cloudy,310,2011-10-22 04:53:00